createdAt,value
2023-04-08T00:02:51.401Z,100684.66
2023-04-08T00:07:55.397Z,100688.22
2023-04-08T00:12:56.939Z,100700.44
2023-04-08T00:17:58.521Z,100701.06
2023-04-08T00:23:00.259Z,100704.63
2023-04-08T00:28:01.842Z,100701.47
2023-04-08T00:33:03.569Z,100691.41
2023-04-08T00:38:08.050Z,100697.72
2023-04-08T00:43:09.742Z,100692.03
2023-04-08T00:48:11.620Z,100697.50
2023-04-08T00:53:17.253Z,100697.72
2023-04-08T00:58:19.402Z,100702.53
2023-04-08T01:03:36.443Z,100709.06
2023-04-08T01:08:41.054Z,100705.66
2023-04-08T01:13:44.172Z,100705.47
2023-04-08T01:18:48.047Z,100709.25
2023-04-08T01:24:16.600Z,100705.47
2023-04-08T01:29:19.324Z,100704.84
2023-04-08T01:34:21.321Z,100701.25
2023-04-08T01:39:23.914Z,100704.59
2023-04-08T01:44:26.518Z,100704.59
2023-04-08T01:49:30.547Z,100706.50
2023-04-08T01:54:32.344Z,100704.78
2023-04-08T01:59:37.788Z,100698.31
2023-04-08T02:04:40.130Z,100698.31
2023-04-08T02:09:42.336Z,100697.47
2023-04-08T02:14:44.013Z,100687.16
2023-04-08T02:20:00.592Z,100694.91
2023-04-08T02:25:04.619Z,100700.78
2023-04-08T02:30:08.138Z,100711.09
2023-04-08T02:35:12.142Z,100707.91
2023-04-08T02:40:23.734Z,100699.97
2023-04-08T02:45:28.466Z,100692.81
2023-04-08T02:50:30.132Z,100696.97
2023-04-08T02:55:31.834Z,100695.66
2023-04-08T03:00:33.545Z,100709.31
2023-04-08T03:05:35.214Z,100695.22
2023-04-08T03:10:36.768Z,100705.31
2023-04-08T03:15:38.358Z,100705.56
2023-04-08T03:20:39.874Z,100700.53
2023-04-08T03:25:41.528Z,100707.28
2023-04-08T03:30:43.152Z,100697.22
2023-04-08T03:35:44.702Z,100707.72
2023-04-08T03:40:46.404Z,100709.63
2023-04-08T03:45:47.992Z,100711.09
2023-04-08T03:50:49.541Z,100715.09
2023-04-08T03:55:51.190Z,100708.41
2023-04-08T04:00:52.706Z,100704.78
2023-04-08T04:05:54.245Z,100713.41
2023-04-08T04:10:55.753Z,100713.41
2023-04-08T04:15:57.631Z,100713.63
2023-04-08T04:20:59.190Z,100711.28
2023-04-08T04:26:00.700Z,100711.22
2023-04-08T04:31:02.320Z,100718.28
2023-04-08T04:36:03.909Z,100725.88
2023-04-08T04:41:05.622Z,100727.78
2023-04-08T04:46:09.081Z,100727.59
2023-04-08T04:51:10.784Z,100739.13
2023-04-08T04:56:12.372Z,100737.69
2023-04-08T05:01:13.927Z,100734.97
2023-04-08T05:06:15.604Z,100747.56
2023-04-08T05:11:18.481Z,100743.13
2023-04-08T05:16:20.072Z,100751.56
2023-04-08T05:21:21.681Z,100761.66
2023-04-08T05:26:23.714Z,100759.59
2023-04-08T05:31:25.733Z,100759.19
2023-04-08T05:36:27.439Z,100764.28
2023-04-08T05:41:29.093Z,100766.59
2023-04-08T05:46:30.738Z,100765.34
2023-04-08T05:51:32.306Z,100768.13
2023-04-08T05:56:33.903Z,100779.13
2023-04-08T06:01:35.520Z,100777.03
2023-04-08T06:06:40.575Z,100781.44
2023-04-08T06:11:42.141Z,100795.97
2023-04-08T06:16:44.165Z,100794.91
2023-04-08T06:21:45.827Z,100800.56
2023-04-08T06:26:48.002Z,100797.22
2023-04-08T06:31:50.395Z,100794.25
2023-04-08T06:36:51.915Z,100802.63
2023-04-08T06:41:54.791Z,100803.44
2023-04-08T06:47:18.385Z,100807.97
2023-04-08T06:52:19.929Z,100811.50
2023-04-08T06:57:21.420Z,100816.94
2023-04-08T07:02:23.369Z,100819.44
2023-04-08T07:07:25.068Z,100817.38
2023-04-08T07:12:26.583Z,100825.19
2023-04-08T07:17:28.138Z,100817.69
2023-04-08T07:22:29.771Z,100819.88
2023-04-08T07:27:33.312Z,100818.00
2023-04-08T07:32:35.412Z,100817.66
2023-04-08T07:37:37.212Z,100823.06
2023-04-08T07:42:40.721Z,100828.69
2023-04-08T07:47:42.415Z,100836.44
2023-04-08T07:52:43.952Z,100833.06
2023-04-08T07:57:46.122Z,100837.53
2023-04-08T08:02:48.663Z,100836.53
2023-04-08T08:07:50.706Z,100837.13
2023-04-08T08:12:52.211Z,100832.50
2023-04-08T08:17:53.788Z,100841.78
2023-04-08T08:22:57.570Z,100837.13
2023-04-08T08:27:59.450Z,100826.75
2023-04-08T08:33:01.061Z,100824.44
2023-04-08T08:38:02.669Z,100840.50
2023-04-08T08:43:04.242Z,100840.66
2023-04-08T08:48:06.918Z,100825.63
2023-04-08T08:53:09.577Z,100812.19
2023-04-08T08:58:11.118Z,100830.09
2023-04-08T09:03:24.858Z,100822.56
2023-04-08T09:08:37.049Z,100845.16
2023-04-08T09:13:39.082Z,100846.72
2023-04-08T09:18:43.299Z,100831.53
2023-04-08T09:23:45.969Z,100839.38
2023-04-08T09:29:18.800Z,100821.09
2023-04-08T09:34:28.392Z,100824.56
2023-04-08T09:39:30.893Z,100818.44
2023-04-08T09:44:33.952Z,100813.59
2023-04-08T09:49:46.789Z,100824.56
2023-04-08T09:54:55.604Z,100831.59
2023-04-08T10:00:09.861Z,100798.63
2023-04-08T10:05:18.509Z,100787.91
2023-04-08T10:10:21.164Z,100792.84
2023-04-08T10:15:33.247Z,100792.53
2023-04-08T10:20:34.801Z,100764.16
2023-04-08T10:25:46.393Z,100793.31
2023-04-08T10:30:58.665Z,100779.56
2023-04-08T10:36:07.168Z,100775.03
2023-04-08T10:41:10.983Z,100783.03
2023-04-08T10:46:12.575Z,100797.34
2023-04-08T10:51:14.262Z,100787.25
2023-04-08T10:56:17.873Z,100778.34
2023-04-08T11:01:19.750Z,100749.94
2023-04-08T11:06:21.351Z,100768.09
2023-04-08T11:11:29.447Z,100763.00
2023-04-08T11:16:31.189Z,100754.28
2023-04-08T11:21:36.264Z,100757.59
2023-04-08T11:26:38.563Z,100760.41
2023-04-08T11:31:41.443Z,100759.25
2023-04-08T11:36:43.048Z,100769.06
2023-04-08T11:41:44.555Z,100778.47
2023-04-08T11:46:57.184Z,100766.19
2023-04-08T11:52:00.188Z,100785.78
2023-04-08T11:57:03.055Z,100780.25
2023-04-08T12:02:04.834Z,100762.59
2023-04-08T12:07:06.369Z,100727.59
2023-04-08T12:12:07.867Z,100721.28
2023-04-08T12:17:09.418Z,100731.03
2023-04-08T12:22:10.962Z,100729.34
2023-04-08T12:27:12.684Z,100762.16
2023-04-08T12:32:15.000Z,100756.28
2023-04-08T12:37:16.494Z,100745.16
2023-04-08T12:42:18.060Z,100761.94
2023-04-08T12:47:20.099Z,100758.22
2023-04-08T12:52:24.564Z,100762.28
2023-04-08T12:57:27.315Z,100777.69
2023-04-08T13:02:29.019Z,100788.00
2023-04-08T13:07:35.300Z,100762.06
2023-04-08T13:12:39.504Z,100767.72
2023-04-08T13:17:42.194Z,100751.50
2023-04-08T13:22:43.747Z,100759.63
2023-04-08T13:27:45.857Z,100742.31
2023-04-08T13:32:47.442Z,100759.34
2023-04-08T13:37:49.048Z,100770.75
2023-04-08T13:42:50.869Z,100751.50
2023-04-08T13:47:52.469Z,100759.56
2023-04-08T13:52:54.062Z,100764.06
2023-04-08T13:57:56.078Z,100746.13
2023-04-08T14:02:58.167Z,100753.16
2023-04-08T14:07:59.688Z,100759.84
2023-04-08T14:13:01.460Z,100766.41
2023-04-08T14:18:03.300Z,100763.44
2023-04-08T14:23:04.968Z,100760.78
2023-04-08T14:28:06.493Z,100756.44
2023-04-08T14:33:08.050Z,100782.00
2023-04-08T14:38:10.126Z,100790.88
2023-04-08T14:43:12.588Z,100773.63
2023-04-08T14:48:14.113Z,100793.75
2023-04-08T14:53:15.655Z,100804.16
2023-04-08T14:58:17.257Z,100810.31
2023-04-08T15:03:18.991Z,100814.44
2023-04-08T15:08:30.730Z,100812.34
2023-04-08T15:13:32.408Z,100817.78
2023-04-08T15:18:33.901Z,100824.69
2023-04-08T15:23:35.561Z,100816.63
2023-04-08T15:28:38.166Z,100819.16
2023-04-08T15:33:41.471Z,100824.53
2023-04-08T15:38:42.970Z,100823.66
2023-04-08T15:43:47.804Z,100823.66
2023-04-08T15:48:50.892Z,100820.19
2023-04-08T15:53:52.730Z,100829.16
2023-04-08T15:58:54.481Z,100836.09
2023-04-08T16:03:56.638Z,100838.94
2023-04-08T16:08:58.213Z,100843.31
2023-04-08T16:13:59.751Z,100848.59
2023-04-08T16:19:02.264Z,100854.88
2023-04-08T16:24:05.256Z,100857.84
2023-04-08T16:29:07.513Z,100857.03
2023-04-08T16:34:09.043Z,100858.97
2023-04-08T16:39:10.716Z,100865.34
2023-04-08T16:44:12.314Z,100865.78
2023-04-08T16:49:15.555Z,100871.47
2023-04-08T16:54:18.490Z,100875.88
2023-04-08T16:59:19.996Z,100874.47
2023-04-08T17:04:23.732Z,100878.47
2023-04-08T17:09:25.631Z,100877.22
2023-04-08T17:14:27.824Z,100887.59
2023-04-08T17:19:29.397Z,100887.72
2023-04-08T17:24:31.027Z,100885.88
2023-04-08T17:29:32.559Z,100895.41
2023-04-08T17:34:34.119Z,100900.53
2023-04-08T17:39:40.656Z,100909.84
2023-04-08T17:44:42.661Z,100913.84
2023-04-08T17:49:44.245Z,100923.38
2023-04-08T17:54:45.865Z,100934.94
2023-04-08T17:59:47.414Z,100932.66
2023-04-08T18:04:50.497Z,100921.91
2023-04-08T18:09:52.280Z,100930.34
2023-04-08T18:14:53.942Z,100946.84
2023-04-08T18:19:55.539Z,100953.38
2023-04-08T18:24:57.035Z,100955.47
2023-04-08T18:29:58.546Z,100951.25
2023-04-08T18:35:00.183Z,100956.09
2023-04-08T18:40:02.811Z,100943.06
2023-04-08T18:45:04.886Z,100961.59
2023-04-08T18:50:06.707Z,100963.06
2023-04-08T18:55:08.463Z,100974.88
2023-04-08T19:00:10.644Z,100972.75
2023-04-08T19:05:12.192Z,100973.41
2023-04-08T19:10:13.752Z,100990.22
2023-04-08T19:15:15.781Z,100995.50
2023-04-08T19:20:17.460Z,101005.19
2023-04-08T19:25:19.106Z,101000.94
2023-04-08T19:30:20.806Z,101018.00
2023-04-08T19:35:22.380Z,101017.75
2023-04-08T19:40:24.097Z,101016.91
2023-04-08T19:45:25.716Z,101017.31
2023-04-08T19:50:28.171Z,101017.13
2023-04-08T19:55:29.935Z,101020.94
2023-04-08T20:00:31.572Z,101019.84
2023-04-08T20:05:33.581Z,101028.06
2023-04-08T20:10:35.763Z,101021.06
2023-04-08T20:15:37.276Z,101026.28
2023-04-08T20:20:38.954Z,101033.16
2023-04-08T20:25:40.492Z,101031.25
2023-04-08T20:30:41.993Z,101029.38
2023-04-08T20:35:43.616Z,101029.78
2023-04-08T20:40:45.522Z,101027.66
2023-04-08T20:45:47.037Z,101017.97
2023-04-08T20:50:49.082Z,101014.84
2023-04-08T20:55:50.655Z,101020.13
2023-04-08T21:00:52.222Z,101013.00
2023-04-08T21:05:55.546Z,101010.50
2023-04-08T21:10:57.147Z,101011.16
2023-04-08T21:15:58.701Z,101016.75
2023-04-08T21:21:00.426Z,101016.13
2023-04-08T21:26:03.436Z,101014.84
2023-04-08T21:31:12.384Z,101021.56
2023-04-08T21:36:14.841Z,101020.00
2023-04-08T21:41:17.266Z,101026.06
2023-04-08T21:46:19.027Z,101015.38
2023-04-08T21:51:23.069Z,101016.22
2023-04-08T21:56:24.670Z,101017.94
2023-04-08T22:01:26.641Z,101022.97
2023-04-08T22:06:32.751Z,101025.03
2023-04-08T22:11:34.635Z,101018.66
2023-04-08T22:16:37.036Z,101025.28
2023-04-08T22:21:38.606Z,101020.63
2023-04-08T22:26:40.115Z,101015.16
2023-04-08T22:31:41.666Z,101016.69
2023-04-08T22:36:43.179Z,101012.44
2023-04-08T22:41:47.122Z,101002.16
2023-04-08T22:46:48.625Z,101009.06
2023-04-08T22:51:50.893Z,101007.75
2023-04-08T22:56:52.581Z,101026.75
2023-04-08T23:01:54.256Z,101019.16
2023-04-08T23:06:55.919Z,101014.59
2023-04-08T23:11:58.233Z,101003.28
2023-04-08T23:17:00.035Z,101006.81
2023-04-08T23:22:01.532Z,101016.81
2023-04-08T23:27:03.113Z,101014.06
2023-04-08T23:32:04.900Z,101027.25
2023-04-08T23:37:06.413Z,101023.03
2023-04-08T23:42:07.933Z,101019.84
2023-04-08T23:47:09.926Z,101028.63
2023-04-08T23:52:11.431Z,101033.19
2023-04-08T23:57:12.998Z,101024.72
